Time;durP1;ratioP1;P1;durP2;ratioP2;P2;SDS_P1;SDS_P2;PMS_P1;PMS_P2;Temp;Humidity;BMP_temperature;BMP_pressure;BME280_temperature;BME280_humidity;BME280_pressure;Samples;Min_cycle;Max_cycle;Signal;HPM_P1;HPM_P2
2022/02/16 00:01:14;;;;;;;19.17;7.93;;;28.50;71.30;;;;;;4983306;28;20044;-54
2022/02/16 00:03:41;;;;;;;15.30;7.60;;;28.50;71.40;;;;;;4983317;28;20026;-49
2022/02/16 00:06:07;;;;;;;16.30;7.25;;;28.50;71.40;;;;;;4983387;28;20045;-51
2022/02/16 00:08:34;;;;;;;17.25;8.45;;;28.50;71.50;;;;;;4983172;28;20026;-47
2022/02/16 00:11:01;;;;;;;15.50;8.82;;;28.50;71.70;;;;;;4983828;28;20326;-47
2022/02/16 00:13:27;;;;;;;15.43;8.25;;;28.40;71.50;;;;;;4982965;28;20031;-45
2022/02/16 00:15:54;;;;;;;16.10;7.90;;;28.40;71.40;;;;;;4983404;28;20064;-47
2022/02/16 00:18:20;;;;;;;14.80;7.78;;;28.40;71.50;;;;;;4983027;28;20025;-51
2022/02/16 00:20:47;;;;;;;15.23;8.32;;;28.40;71.50;;;;;;4983162;28;20034;-50
2022/02/16 00:23:14;;;;;;;20.80;8.20;;;28.40;71.40;;;;;;4983295;28;20025;-49
2022/02/16 00:25:41;;;;;;;14.82;7.55;;;28.40;71.40;;;;;;4983664;28;20144;-49
2022/02/16 00:28:07;;;;;;;18.75;7.10;;;28.40;71.50;;;;;;4983307;28;20102;-45
2022/02/16 00:30:34;;;;;;;14.93;7.20;;;28.40;71.50;;;;;;4983106;28;20022;-50
2022/02/16 00:33:01;;;;;;;11.73;7.32;;;28.40;71.40;;;;;;4983481;28;20078;-49
2022/02/16 00:35:27;;;;;;;12.35;6.95;;;28.30;71.30;;;;;;4982736;28;20026;-53
2022/02/16 00:37:54;;;;;;;13.43;6.95;;;28.30;71.00;;;;;;4982614;28;20046;-47
2022/02/16 00:40:21;;;;;;;17.25;7.57;;;28.30;71.10;;;;;;4981015;28;20319;-49
2022/02/16 00:42:47;;;;;;;16.73;6.45;;;28.30;70.90;;;;;;4982364;28;20031;-45
2022/02/16 00:45:14;;;;;;;21.33;7.13;;;28.20;70.60;;;;;;4972558;28;20276;-49
2022/02/16 00:47:42;;;;;;;16.70;6.75;;;28.20;70.70;;;;;;4981568;28;20022;-52
2022/02/16 00:50:10;;;;;;;17.90;6.38;;;28.10;70.40;;;;;;4982037;28;20027;-53
2022/02/16 00:52:37;;;;;;;23.40;6.90;;;28.10;70.40;;;;;;4981342;28;20027;-45
2022/02/16 00:55:06;;;;;;;26.80;6.95;;;28.10;70.50;;;;;;4982011;28;20038;-47
2022/02/16 00:57:33;;;;;;;16.23;6.85;;;28.10;70.70;;;;;;4982491;28;20434;-46
2022/02/16 00:59:59;;;;;;;15.45;6.85;;;28.00;70.70;;;;;;4982010;28;20045;-50
2022/02/16 01:02:28;;;;;;;13.95;6.80;;;28.00;70.70;;;;;;4981419;28;20042;-46
2022/02/16 01:04:54;;;;;;;21.52;7.45;;;27.90;70.60;;;;;;4964844;28;20062;-46
2022/02/16 01:07:21;;;;;;;34.15;10.70;;;27.90;70.40;;;;;;4982518;28;20039;-47
2022/02/16 01:09:48;;;;;;;22.17;8.57;;;27.90;70.30;;;;;;4980746;28;20034;-51
2022/02/16 01:12:15;;;;;;;17.17;7.57;;;27.90;70.20;;;;;;4982252;28;20034;-47
2022/02/16 01:14:42;;;;;;;13.90;7.07;;;27.90;69.90;;;;;;4981581;28;20026;-51
2022/02/16 01:17:08;;;;;;;15.15;7.28;;;27.80;69.70;;;;;;4996316;28;20031;-50
2022/02/16 01:19:35;;;;;;;18.55;7.30;;;27.80;69.80;;;;;;4981124;28;20027;-47
2022/02/16 01:22:02;;;;;;;13.98;7.15;;;27.80;69.60;;;;;;4982219;28;20042;-46
2022/02/16 01:24:29;;;;;;;10.93;6.78;;;27.70;69.60;;;;;;4981596;28;20034;-45
2022/02/16 01:26:56;;;;;;;13.23;6.68;;;27.70;69.60;;;;;;4981751;28;20043;-47
2022/02/16 01:29:23;;;;;;;15.27;6.55;;;27.70;69.30;;;;;;4981330;28;20038;-49
2022/02/16 01:31:53;;;;;;;17.52;7.20;;;27.70;69.40;;;;;;4981344;28;20034;-47
2022/02/16 01:34:21;;;;;;;13.05;6.45;;;27.70;69.30;;;;;;4981612;28;20039;-47
2022/02/16 01:36:47;;;;;;;10.80;5.90;;;27.70;69.00;;;;;;4980657;28;20246;-49
2022/02/16 01:39:14;;;;;;;20.85;6.30;;;27.70;68.80;;;;;;4981466;28;20318;-52
2022/02/16 01:41:41;;;;;;;12.68;6.60;;;27.60;68.70;;;;;;4981741;28;20034;-45
2022/02/16 01:44:07;;;;;;;11.52;6.60;;;27.60;68.40;;;;;;4981482;28;20342;-51
2022/02/16 01:46:55;;;;;;;14.27;6.70;;;27.60;68.50;;;;;;4981575;28;20215;-48
2022/02/16 01:49:22;;;;;;;12.70;6.22;;;27.60;68.20;;;;;;4981415;28;20051;-47
2022/02/16 01:51:49;;;;;;;13.93;6.57;;;27.60;68.30;;;;;;4981700;28;20033;-46
2022/02/16 01:54:16;;;;;;;12.15;6.60;;;27.60;68.30;;;;;;4980787;28;20038;-46
2022/02/16 01:56:46;;;;;;;11.90;6.57;;;27.60;68.20;;;;;;4981637;28;20059;-49
2022/02/16 01:59:15;;;;;;;9.48;6.50;;;27.60;68.10;;;;;;4981224;28;20039;-49
2022/02/16 02:01:45;;;;;;;13.15;6.80;;;27.60;68.20;;;;;;4980549;28;20053;-47
2022/02/16 02:04:13;;;;;;;11.15;6.32;;;27.50;68.10;;;;;;4972428;28;20094;-49
2022/02/16 02:06:43;;;;;;;13.45;6.80;;;27.50;67.80;;;;;;4982629;28;20039;-48
2022/02/16 02:09:11;;;;;;;12.18;6.15;;;27.60;67.70;;;;;;4984703;28;20030;-49
2022/02/16 02:11:41;;;;;;;12.55;6.03;;;27.50;67.40;;;;;;4984878;28;20037;-50
2022/02/16 02:14:10;;;;;;;12.63;6.70;;;27.50;67.50;;;;;;4984711;28;20023;-45
2022/02/16 02:16:41;;;;;;;12.32;6.22;;;27.50;67.40;;;;;;4984380;28;20023;-51
2022/02/16 02:19:09;;;;;;;10.85;6.60;;;27.50;67.30;;;;;;4984806;28;20042;-52
2022/02/16 02:21:36;;;;;;;13.30;6.28;;;27.40;67.30;;;;;;4984311;28;20030;-53
2022/02/16 02:24:03;;;;;;;11.02;6.35;;;27.40;67.00;;;;;;4984799;28;20043;-46
2022/02/16 02:26:29;;;;;;;11.57;6.38;;;27.40;67.30;;;;;;4984702;28;20035;-46
2022/02/16 02:28:56;;;;;;;11.70;6.43;;;27.40;67.20;;;;;;4984194;28;20038;-49
2022/02/16 02:31:31;;;;;;;14.90;6.60;;;27.40;67.20;;;;;;4984127;28;20098;-49
2022/02/16 02:33:59;;;;;;;13.02;6.63;;;27.40;67.10;;;;;;4984544;28;20027;-47
2022/02/16 02:36:26;;;;;;;13.15;7.30;;;27.40;67.30;;;;;;5013138;28;20033;-44
2022/02/16 02:38:53;;;;;;;15.02;6.70;;;27.30;67.10;;;;;;5031314;28;20096;-47
2022/02/16 02:41:20;;;;;;;12.18;6.20;;;27.40;67.20;;;;;;5036238;28;20050;-47
2022/02/16 02:43:47;;;;;;;10.40;6.68;;;27.30;66.80;;;;;;5029515;28;20026;-44
2022/02/16 02:46:15;;;;;;;13.40;6.25;;;27.30;67.00;;;;;;5035829;28;20094;-48
2022/02/16 02:48:43;;;;;;;15.07;6.60;;;27.30;67.00;;;;;;5031863;28;20074;-43
2022/02/16 02:51:10;;;;;;;21.35;7.38;;;27.30;67.40;;;;;;5063107;28;20074;-45
2022/02/16 02:53:39;;;;;;;12.45;6.65;;;27.30;67.90;;;;;;5086133;28;20062;-44
2022/02/16 02:56:06;;;;;;;10.73;6.53;;;27.30;67.40;;;;;;5022193;28;20092;-46
2022/02/16 02:58:33;;;;;;;13.38;6.82;;;27.30;67.50;;;;;;4984017;28;20226;-45
2022/02/16 03:00:59;;;;;;;9.52;6.13;;;27.30;67.60;;;;;;4983649;28;20069;-49
2022/02/16 03:03:27;;;;;;;11.45;6.38;;;27.20;67.80;;;;;;4983929;28;20098;-45
2022/02/16 03:05:53;;;;;;;14.52;6.50;;;27.20;67.80;;;;;;4983623;28;20041;-45
2022/02/16 03:08:20;;;;;;;12.95;6.40;;;27.20;68.10;;;;;;4983882;28;20027;-45
2022/02/16 03:10:46;;;;;;;10.52;6.65;;;27.20;68.00;;;;;;4983676;28;20027;-47
2022/02/16 03:13:19;;;;;;;13.38;6.90;;;27.20;68.10;;;;;;4983812;28;20030;-47
2022/02/16 03:15:50;;;;;;;13.10;6.70;;;27.20;68.50;;;;;;4982863;28;20207;-52
2022/02/16 03:18:20;;;;;;;11.20;6.88;;;27.10;68.50;;;;;;4983700;28;20035;-48
2022/02/16 03:20:47;;;;;;;17.10;12.45;;;27.10;68.60;;;;;;4983533;28;20249;-47
2022/02/16 03:23:14;;;;;;;85.47;76.82;;;27.10;68.70;;;;;;4983697;28;20199;-45
2022/02/16 03:25:40;;;;;;;44.45;40.05;;;27.10;68.80;;;;;;4983007;28;20303;-46
2022/02/16 03:28:07;;;;;;;28.55;22.98;;;27.10;68.90;;;;;;4983295;28;20034;-49
2022/02/16 03:30:34;;;;;;;16.90;11.50;;;27.00;68.80;;;;;;4983119;28;20039;-48
2022/02/16 03:33:06;;;;;;;17.60;12.65;;;27.00;69.20;;;;;;4983738;28;20364;-46
2022/02/16 03:35:33;;;;;;;18.23;15.55;;;27.10;68.90;;;;;;4983545;28;20255;-46
2022/02/16 03:38:00;;;;;;;17.33;12.68;;;27.10;68.70;;;;;;4983471;28;20090;-46
2022/02/16 03:40:28;;;;;;;16.70;12.30;;;27.10;68.60;;;;;;4983333;28;20026;-47
2022/02/16 03:42:54;;;;;;;16.33;10.88;;;27.10;68.40;;;;;;4983402;28;20057;-45
2022/02/16 03:45:21;;;;;;;11.85;9.50;;;27.20;68.30;;;;;;4982816;28;20039;-47
2022/02/16 03:47:47;;;;;;;14.77;9.65;;;27.20;68.30;;;;;;4982599;28;20203;-46
2022/02/16 03:50:14;;;;;;;14.30;8.13;;;27.20;68.30;;;;;;4982495;28;20072;-47
2022/02/16 03:52:41;;;;;;;11.85;7.93;;;27.20;68.20;;;;;;4983232;28;20215;-54
2022/02/16 03:55:10;;;;;;;13.77;7.90;;;27.20;68.00;;;;;;4982873;28;20311;-51
2022/02/16 03:57:38;;;;;;;12.65;8.20;;;27.20;67.80;;;;;;4982878;28;20042;-47
2022/02/16 04:00:08;;;;;;;13.68;8.00;;;27.20;67.70;;;;;;4982579;28;20014;-48
2022/02/16 04:02:35;;;;;;;10.52;7.65;;;27.20;67.70;;;;;;4982985;28;20348;-50
2022/02/16 04:05:02;;;;;;;19.13;10.85;;;27.20;67.60;;;;;;4982786;28;20088;-45
2022/02/16 04:07:29;;;;;;;16.15;11.48;;;27.20;67.50;;;;;;4982875;28;20041;-46
2022/02/16 04:09:55;;;;;;;13.75;10.07;;;27.20;67.50;;;;;;4982772;28;20215;-45
2022/02/16 04:12:22;;;;;;;11.05;7.70;;;27.20;67.80;;;;;;4983421;28;20043;-48
2022/02/16 04:14:48;;;;;;;11.40;7.10;;;27.20;67.80;;;;;;4982484;28;20046;-46
2022/02/16 04:17:15;;;;;;;12.25;7.10;;;27.20;68.10;;;;;;4983339;28;20019;-50
2022/02/16 04:19:41;;;;;;;14.82;7.07;;;27.20;67.40;;;;;;4982699;28;20061;-45
2022/02/16 04:22:09;;;;;;;8.43;6.95;;;27.20;67.30;;;;;;4983214;28;20023;-48
2022/02/16 04:24:35;;;;;;;11.30;6.93;;;27.20;67.40;;;;;;4982768;28;20072;-45
2022/02/16 04:27:03;;;;;;;9.70;6.82;;;27.20;67.50;;;;;;4981833;28;20039;-45
2022/02/16 04:29:29;;;;;;;15.93;13.20;;;27.20;67.50;;;;;;4982084;28;20047;-46
2022/02/16 04:31:56;;;;;;;10.73;8.38;;;27.20;67.40;;;;;;4983105;28;20195;-46
2022/02/16 04:34:23;;;;;;;24.35;20.40;;;27.20;67.40;;;;;;4982344;28;20035;-54
2022/02/16 04:36:49;;;;;;;13.88;8.90;;;27.20;67.30;;;;;;4982417;28;20027;-50
2022/02/16 04:39:16;;;;;;;9.60;7.18;;;27.20;67.30;;;;;;4982607;28;20039;-49
2022/02/16 04:41:43;;;;;;;11.43;7.40;;;27.20;67.30;;;;;;4982495;28;20053;-44
2022/02/16 04:44:09;;;;;;;10.40;7.32;;;27.20;67.40;;;;;;4982430;28;20080;-45
2022/02/16 04:46:36;;;;;;;10.00;7.00;;;27.20;67.30;;;;;;4982589;28;20242;-46
2022/02/16 04:49:03;;;;;;;11.23;7.03;;;27.20;67.30;;;;;;4982392;28;20042;-45
2022/02/16 04:51:29;;;;;;;10.23;6.53;;;27.20;67.40;;;;;;4982592;28;20037;-46
2022/02/16 04:53:56;;;;;;;10.43;6.63;;;27.20;67.40;;;;;;4982434;28;20011;-45
2022/02/16 04:56:23;;;;;;;10.85;7.15;;;27.20;67.40;;;;;;4982175;28;20191;-48
2022/02/16 04:58:49;;;;;;;13.32;7.05;;;27.20;67.50;;;;;;4981452;28;20046;-48
2022/02/16 05:01:20;;;;;;;10.43;6.75;;;27.20;67.40;;;;;;4982085;28;20042;-49
2022/02/16 05:03:47;;;;;;;12.70;6.65;;;27.20;67.50;;;;;;4982167;28;20031;-47
2022/02/16 05:06:14;;;;;;;7.80;6.60;;;27.20;67.60;;;;;;4982278;28;20035;-51
2022/02/16 05:08:40;;;;;;;10.77;7.07;;;27.20;67.60;;;;;;4982118;28;20334;-49
2022/02/16 05:11:07;;;;;;;10.70;6.57;;;27.20;67.70;;;;;;4981500;28;20091;-50
2022/02/16 05:13:34;;;;;;;13.38;6.72;;;27.20;67.60;;;;;;4981612;28;20027;-50
2022/02/16 05:16:00;;;;;;;9.75;6.70;;;27.20;67.60;;;;;;4982035;28;20030;-55
2022/02/16 05:18:27;;;;;;;9.27;6.57;;;27.20;67.60;;;;;;4982188;28;20092;-49
2022/02/16 05:20:53;;;;;;;9.50;6.82;;;27.20;67.70;;;;;;4982388;28;20038;-50
2022/02/16 05:23:20;;;;;;;11.88;7.13;;;27.20;67.80;;;;;;4982169;28;20042;-45
2022/02/16 05:25:47;;;;;;;10.80;7.22;;;27.20;67.60;;;;;;4982285;28;20072;-46
2022/02/16 05:28:14;;;;;;;9.68;7.03;;;27.20;67.50;;;;;;4981781;28;20196;-51
2022/02/16 05:30:41;;;;;;;8.85;6.70;;;27.20;67.40;;;;;;4982089;28;20058;-47
2022/02/16 05:33:07;;;;;;;9.75;6.80;;;27.10;67.50;;;;;;4981877;28;20026;-49
2022/02/16 05:35:34;;;;;;;10.18;6.85;;;27.20;67.50;;;;;;4981800;28;20238;-49
2022/02/16 05:38:01;;;;;;;9.70;7.00;;;27.10;67.40;;;;;;4983366;28;20129;-46
2022/02/16 05:40:27;;;;;;;10.57;6.80;;;27.20;67.50;;;;;;4985334;28;20279;-47
2022/02/16 05:42:54;;;;;;;10.43;6.70;;;27.10;67.40;;;;;;4985208;28;20039;-52
2022/02/16 05:45:21;;;;;;;10.95;6.97;;;27.10;67.40;;;;;;4985222;28;20035;-50
2022/02/16 05:47:48;;;;;;;9.13;6.55;;;27.10;67.50;;;;;;4985148;28;20030;-44
2022/02/16 05:50:14;;;;;;;10.32;7.00;;;27.10;67.50;;;;;;4984763;28;20085;-47
2022/02/16 05:52:41;;;;;;;10.15;6.75;;;27.10;67.50;;;;;;4985123;28;20049;-45
2022/02/16 05:55:08;;;;;;;9.73;6.90;;;27.10;67.40;;;;;;4984975;28;20310;-47
2022/02/16 05:57:35;;;;;;;13.25;7.13;;;27.10;67.60;;;;;;4985158;28;20025;-48
2022/02/16 06:00:03;;;;;;;11.30;6.45;;;27.10;67.60;;;;;;4984980;28;20045;-46
2022/02/16 06:02:30;;;;;;;13.80;7.00;;;27.10;67.60;;;;;;4984860;28;20088;-45
2022/02/16 06:04:57;;;;;;;13.32;6.75;;;27.10;67.60;;;;;;4984895;28;20413;-44
2022/02/16 06:07:24;;;;;;;11.88;7.10;;;27.10;67.70;;;;;;4985161;28;20035;-52
2022/02/16 06:09:52;;;;;;;14.52;7.47;;;27.10;67.70;;;;;;4984745;28;20026;-57
2022/02/16 06:12:18;;;;;;;11.80;7.00;;;27.10;67.60;;;;;;4985155;28;20031;-53
2022/02/16 06:14:45;;;;;;;9.20;6.85;;;27.10;67.80;;;;;;4983724;28;20112;-49
2022/02/16 06:17:11;;;;;;;9.57;6.97;;;27.10;67.90;;;;;;4985210;28;20030;-48
2022/02/16 06:19:38;;;;;;;12.82;7.40;;;27.10;67.90;;;;;;4984907;28;20030;-48
2022/02/16 06:22:05;;;;;;;11.05;7.07;;;27.10;67.90;;;;;;4984629;28;20398;-53
2022/02/16 06:24:32;;;;;;;9.13;6.80;;;27.10;68.00;;;;;;4984740;28;20314;-48
2022/02/16 06:26:59;;;;;;;12.65;7.05;;;27.10;68.10;;;;;;4984903;28;20057;-46
2022/02/16 06:29:25;;;;;;;8.35;6.70;;;27.10;68.10;;;;;;4984928;28;20052;-49
2022/02/16 06:31:52;;;;;;;9.30;6.70;;;27.10;68.10;;;;;;4984824;28;20231;-44
2022/02/16 06:34:18;;;;;;;10.18;6.90;;;27.10;68.20;;;;;;4984361;28;20038;-47
2022/02/16 06:36:45;;;;;;;16.50;6.78;;;27.10;68.30;;;;;;4984798;28;20037;-45
2022/02/16 06:39:12;;;;;;;8.02;6.50;;;27.00;68.30;;;;;;4984410;28;20030;-51
2022/02/16 06:41:38;;;;;;;9.15;6.88;;;27.10;68.50;;;;;;4984982;28;20299;-52
2022/02/16 06:44:05;;;;;;;9.07;7.00;;;27.10;68.50;;;;;;4984622;28;20049;-46
2022/02/16 06:46:32;;;;;;;12.00;7.00;;;27.10;68.50;;;;;;4984596;28;20038;-44
2022/02/16 06:48:58;;;;;;;9.05;6.90;;;27.10;68.70;;;;;;4983254;28;20195;-53
2022/02/16 06:51:25;;;;;;;8.70;6.70;;;27.00;68.70;;;;;;4984347;28;20041;-46
2022/02/16 06:53:55;;;;;;;10.00;7.15;;;27.10;68.80;;;;;;4984240;28;20023;-45
2022/02/16 06:56:22;;;;;;;13.38;6.60;;;27.00;68.80;;;;;;4984611;28;20039;-55
2022/02/16 06:58:49;;;;;;;12.40;7.28;;;27.00;69.00;;;;;;4984275;28;20027;-47
2022/02/16 07:01:16;;;;;;;11.48;7.30;;;27.00;69.10;;;;;;4983980;28;20369;-48
2022/02/16 07:03:44;;;;;;;10.43;7.00;;;27.00;69.30;;;;;;4984130;28;20042;-53
2022/02/16 07:06:10;;;;;;;10.88;7.10;;;27.00;69.30;;;;;;4983957;28;20039;-48
2022/02/16 07:08:37;;;;;;;12.40;7.32;;;27.00;69.40;;;;;;4983926;28;20357;-48
2022/02/16 07:11:04;;;;;;;9.90;6.93;;;27.00;69.50;;;;;;4983866;28;20310;-53
2022/02/16 07:13:30;;;;;;;11.30;7.75;;;27.00;69.60;;;;;;4983872;28;20023;-46
2022/02/16 07:15:57;;;;;;;9.05;7.47;;;27.00;69.60;;;;;;4984181;28;20041;-50
2022/02/16 07:18:27;;;;;;;10.52;7.30;;;26.90;69.70;;;;;;4983861;28;20068;-51
2022/02/16 07:20:54;;;;;;;8.60;7.45;;;26.90;69.80;;;;;;4984290;28;20037;-48
2022/02/16 07:23:21;;;;;;;10.45;7.55;;;26.90;69.90;;;;;;4983758;28;20035;-46
2022/02/16 07:25:47;;;;;;;9.90;7.30;;;26.90;69.80;;;;;;4983987;28;20058;-47
2022/02/16 07:28:14;;;;;;;11.23;7.18;;;26.90;69.90;;;;;;4983845;28;20026;-48
2022/02/16 07:30:45;;;;;;;9.27;7.13;;;26.90;70.00;;;;;;4983808;28;20360;-55
2022/02/16 07:33:12;;;;;;;13.55;7.70;;;26.90;70.10;;;;;;4983494;28;20026;-53
2022/02/16 07:35:39;;;;;;;12.23;7.45;;;26.90;70.30;;;;;;4983705;28;20046;-51
2022/02/16 07:38:06;;;;;;;9.30;7.57;;;26.90;70.40;;;;;;4983559;28;20338;-47
2022/02/16 07:40:32;;;;;;;10.50;7.85;;;26.90;70.40;;;;;;4983586;28;20026;-49
2022/02/16 07:42:59;;;;;;;10.90;7.40;;;26.90;70.60;;;;;;4983513;28;20307;-45
2022/02/16 07:45:26;;;;;;;11.30;7.43;;;26.90;70.80;;;;;;4983434;28;20043;-50
2022/02/16 07:47:52;;;;;;;9.23;7.25;;;26.90;71.10;;;;;;4983482;28;20303;-49
2022/02/16 07:50:19;;;;;;;10.40;7.80;;;26.90;71.20;;;;;;4983214;28;20022;-49
2022/02/16 07:52:46;;;;;;;8.43;7.53;;;26.80;71.20;;;;;;4983223;28;20226;-48
2022/02/16 07:55:13;;;;;;;11.57;7.38;;;26.80;71.30;;;;;;4983125;28;20064;-47
2022/02/16 07:57:40;;;;;;;12.65;7.50;;;26.80;71.40;;;;;;4983070;28;20023;-45
2022/02/16 08:00:08;;;;;;;9.63;7.45;;;26.80;71.40;;;;;;4983084;28;20041;-45
2022/02/16 08:02:34;;;;;;;11.27;7.95;;;26.80;71.70;;;;;;4983035;28;20051;-49
2022/02/16 08:05:02;;;;;;;14.73;8.13;;;26.80;71.70;;;;;;4983213;28;20054;-44
2022/02/16 08:10:33;;;;;;;11.90;7.97;;;26.80;71.70;;;;;;4983177;28;20329;-46
2022/02/16 08:12:59;;;;;;;12.80;7.40;;;26.80;71.80;;;;;;4983501;28;20065;-46
2022/02/16 08:15:35;;;;;;;14.70;8.65;;;26.80;71.90;;;;;;4982800;28;20027;-47
2022/02/16 08:18:01;;;;;;;10.65;8.10;;;26.80;72.00;;;;;;4983282;28;20018;-46
2022/02/16 08:20:28;;;;;;;12.60;8.07;;;26.80;72.00;;;;;;4983067;28;20039;-45
2022/02/16 08:22:55;;;;;;;12.95;8.18;;;26.80;72.10;;;;;;4982942;28;20015;-48
2022/02/16 08:25:21;;;;;;;10.80;8.30;;;26.70;72.00;;;;;;4983105;28;20160;-45
2022/02/16 08:27:48;;;;;;;9.80;7.97;;;26.70;72.10;;;;;;4983053;28;20059;-48
2022/02/16 08:30:16;;;;;;;12.50;8.07;;;26.70;72.10;;;;;;4982970;28;20022;-48
2022/02/16 08:32:42;;;;;;;12.20;8.57;;;26.70;72.00;;;;;;4983210;28;20030;-45
2022/02/16 08:35:10;;;;;;;11.93;8.68;;;26.70;72.00;;;;;;4982633;28;20022;-45
2022/02/16 08:37:40;;;;;;;12.52;8.48;;;26.70;72.00;;;;;;4982749;28;20175;-46
2022/02/16 08:40:07;;;;;;;12.18;8.15;;;26.60;72.10;;;;;;4982821;28;20033;-47
2022/02/16 08:42:34;;;;;;;11.55;8.32;;;26.70;71.90;;;;;;4983141;28;20030;-45
2022/02/16 08:45:00;;;;;;;9.73;8.10;;;26.70;71.70;;;;;;4982907;28;20037;-48
2022/02/16 08:47:27;;;;;;;11.80;8.38;;;26.60;71.70;;;;;;4983104;28;20027;-47
2022/02/16 08:49:54;;;;;;;12.27;8.05;;;26.60;71.50;;;;;;4982701;28;20054;-51
2022/02/16 08:52:21;;;;;;;13.77;7.75;;;26.60;71.40;;;;;;4982961;28;20027;-48
2022/02/16 08:54:47;;;;;;;11.45;8.27;;;26.60;71.30;;;;;;4982803;28;20274;-48
2022/02/16 08:57:14;;;;;;;12.10;8.50;;;26.60;71.30;;;;;;4982758;28;20042;-51
2022/02/16 08:59:41;;;;;;;11.30;7.53;;;26.60;71.20;;;;;;4982470;28;20019;-48
2022/02/16 09:02:07;;;;;;;11.27;7.70;;;26.60;71.00;;;;;;4982135;28;20278;-52
2022/02/16 09:04:34;;;;;;;10.65;7.72;;;26.60;70.80;;;;;;4982271;28;20026;-45
2022/02/16 09:07:34;;;;;;;12.48;7.95;;;26.60;70.70;;;;;;4982717;28;20057;-47
2022/02/16 09:09:53;;;;;;;10.75;8.10;;;26.60;70.60;;;;;;4979337;28;20326;-46
2022/02/16 09:12:22;;;;;;;16.15;8.07;;;26.60;70.40;;;;;;4981394;28;20019;-50
2022/02/16 09:14:49;;;;;;;15.02;8.57;;;26.60;70.30;;;;;;4982167;28;20027;-46
2022/02/16 09:17:16;;;;;;;12.80;8.23;;;26.60;70.10;;;;;;4982609;28;20031;-46
2022/02/16 09:19:42;;;;;;;12.07;7.60;;;26.60;70.00;;;;;;4982107;28;20246;-48
2022/02/16 09:22:11;;;;;;;12.55;8.32;;;26.60;69.70;;;;;;4982893;28;20050;-48
2022/02/16 09:24:39;;;;;;;11.25;7.70;;;26.60;69.80;;;;;;4982304;28;20023;-48
2022/02/16 09:27:07;;;;;;;15.80;8.20;;;26.60;69.70;;;;;;4982564;28;20035;-47
2022/02/16 09:29:33;;;;;;;13.70;7.50;;;26.60;69.60;;;;;;4981872;28;20038;-49
2022/02/16 09:32:00;;;;;;;11.95;7.40;;;26.60;69.50;;;;;;4982468;28;20034;-49
2022/02/16 09:34:27;;;;;;;12.40;8.05;;;26.60;69.40;;;;;;4982169;28;20029;-56
2022/02/16 09:36:53;;;;;;;11.57;7.45;;;26.60;69.30;;;;;;4981996;28;20022;-48
2022/02/16 09:39:20;;;;;;;12.35;7.55;;;26.60;69.30;;;;;;4982364;28;20035;-52
2022/02/16 09:41:47;;;;;;;9.10;7.10;;;26.60;69.20;;;;;;4982030;28;20022;-50
2022/02/16 09:44:17;;;;;;;9.90;7.35;;;26.60;69.10;;;;;;4981855;28;20263;-45
2022/02/16 09:46:43;;;;;;;9.23;7.50;;;26.60;69.10;;;;;;4982412;28;20041;-46
2022/02/16 09:49:13;;;;;;;12.20;7.13;;;26.60;68.90;;;;;;4981539;28;20031;-49
2022/02/16 09:51:42;;;;;;;12.70;7.85;;;26.60;69.00;;;;;;4982272;28;20315;-50
2022/02/16 09:54:12;;;;;;;12.98;7.82;;;26.60;69.00;;;;;;4981837;28;20315;-51
2022/02/16 09:56:43;;;;;;;13.45;7.30;;;26.60;69.00;;;;;;4982394;28;20279;-47
2022/02/16 09:59:13;;;;;;;9.98;7.30;;;26.60;68.80;;;;;;4981695;28;20050;-47
2022/02/16 10:02:04;;;;;;;10.52;7.65;;;26.60;68.90;;;;;;4981406;28;20118;-48
2022/02/16 10:04:34;;;;;;;10.38;7.50;;;26.60;69.20;;;;;;4981797;28;20225;-45
2022/02/16 10:07:02;;;;;;;13.82;7.82;;;26.50;69.20;;;;;;4981923;28;20038;-44
2022/02/16 10:09:35;;;;;;;13.60;7.47;;;26.50;69.40;;;;;;4981568;28;20035;-50
2022/02/16 10:12:04;;;;;;;12.15;8.05;;;26.50;69.50;;;;;;4981912;28;20030;-54
2022/02/16 10:14:36;;;;;;;10.98;7.50;;;26.50;69.40;;;;;;4981453;28;20031;-49
2022/02/16 10:17:24;;;;;;;13.35;7.93;;;26.50;69.50;;;;;;4982111;28;20023;-49
2022/02/16 10:19:52;;;;;;;14.73;8.45;;;26.50;69.60;;;;;;4981608;28;20110;-51
2022/02/16 10:22:21;;;;;;;13.25;8.05;;;26.50;69.60;;;;;;4981556;28;20039;-49
2022/02/16 10:24:49;;;;;;;19.40;8.65;;;26.50;69.80;;;;;;4982212;28;20039;-46
2022/02/16 10:27:17;;;;;;;14.30;7.80;;;26.50;70.00;;;;;;4985192;28;20038;-48
2022/02/16 10:29:45;;;;;;;15.05;8.18;;;26.50;70.00;;;;;;4984743;28;20033;-44
2022/02/16 10:32:28;;;;;;;18.58;8.25;;;26.50;69.90;;;;;;4985058;28;20234;-45
2022/02/16 10:34:55;;;;;;;;;;;26.50;69.70;;;;;;4985143;28;20074;-47
2022/02/16 10:37:42;;;;;;;16.05;7.90;;;26.50;69.60;;;;;;4984959;28;19910;-50
2022/02/16 10:40:10;;;;;;;16.13;8.40;;;26.40;69.50;;;;;;4984489;28;20215;-48
2022/02/16 10:42:53;;;;;;;16.65;8.38;;;26.40;69.50;;;;;;4984374;28;20042;-49
2022/02/16 10:45:21;;;;;;;20.35;9.30;;;26.40;69.40;;;;;;4984247;28;20060;-47
2022/02/16 10:47:52;;;;;;;14.02;8.23;;;26.40;69.30;;;;;;4984127;28;20046;-46
2022/02/16 10:50:24;;;;;;;16.75;9.15;;;26.40;69.50;;;;;;4984186;28;20027;-46
2022/02/16 10:52:59;;;;;;;18.02;8.52;;;26.40;69.50;;;;;;4984437;28;20029;-47
2022/02/16 10:55:43;;;;;;;19.08;8.70;;;26.40;69.50;;;;;;4984627;28;20202;-45
2022/02/16 10:58:19;;;;;;;23.67;8.50;;;26.40;69.40;;;;;;4984536;28;20062;-46
2022/02/16 11:00:48;;;;;;;17.85;8.57;;;26.40;69.40;;;;;;4984069;28;20027;-51
2022/02/16 11:03:33;;;;;;;20.45;8.80;;;26.40;69.50;;;;;;4984083;28;20034;-48
2022/02/16 11:06:07;;;;;;;17.67;8.75;;;26.40;69.50;;;;;;4983832;28;20037;-50
2022/02/16 11:08:36;;;;;;;24.45;9.57;;;26.30;69.30;;;;;;4983416;28;20031;-46
2022/02/16 11:11:06;;;;;;;20.67;8.50;;;26.30;69.20;;;;;;4984048;28;20054;-54
2022/02/16 11:13:34;;;;;;;19.70;9.20;;;26.30;69.30;;;;;;4983923;28;20332;-50
2022/02/16 11:16:02;;;;;;;25.80;10.32;;;26.30;69.20;;;;;;4984114;28;20031;-51
2022/02/16 11:18:42;;;;;;;36.85;10.98;;;26.30;69.30;;;;;;4983597;28;20049;-47
2022/02/16 11:21:17;;;;;;;33.92;11.80;;;26.30;69.30;;;;;;4984139;28;20031;-44
2022/02/16 11:23:45;;;;;;;44.05;15.18;;;26.30;69.40;;;;;;4983805;28;20039;-48
2022/02/16 11:26:38;;;;;;;50.90;16.67;;;26.30;69.40;;;;;;4983982;28;20027;-50
2022/02/16 11:29:10;;;;;;;41.63;16.33;;;26.40;69.80;;;;;;4983541;28;20034;-47
2022/02/16 11:31:41;;;;;;;34.78;15.88;;;26.40;70.10;;;;;;4984184;28;20097;-48
2022/02/16 11:34:17;;;;;;;35.13;13.60;;;26.30;70.00;;;;;;4984294;28;20036;-51
2022/02/16 11:36:55;;;;;;;37.38;12.80;;;26.40;69.90;;;;;;4984103;28;20199;-51
2022/02/16 11:39:50;;;;;;;41.65;13.02;;;26.40;69.80;;;;;;4984389;28;20030;-54
2022/02/16 11:42:18;;;;;;;35.72;12.07;;;26.40;69.60;;;;;;4984661;28;20152;-50
2022/02/16 11:44:57;;;;;;;32.03;11.20;;;26.40;69.20;;;;;;4983832;28;20035;-50
2022/02/16 11:47:35;;;;;;;38.70;11.80;;;26.40;69.10;;;;;;4984534;28;20041;-54
2022/02/16 11:50:14;;;;;;;34.80;11.80;;;26.40;69.00;;;;;;4983794;28;20026;-51
2022/02/16 11:52:51;;;;;;;34.78;12.18;;;26.40;68.80;;;;;;4983632;28;20026;-49
2022/02/16 11:55:22;;;;;;;32.08;11.50;;;26.40;69.10;;;;;;4983585;28;20322;-47
2022/02/16 11:57:52;;;;;;;36.05;10.98;;;26.40;68.80;;;;;;4983978;28;20033;-48
2022/02/16 12:00:19;;;;;;;30.02;10.85;;;26.60;68.50;;;;;;4983502;28;20037;-52
2022/02/16 12:03:05;;;;;;;28.75;10.23;;;26.60;68.40;;;;;;4983304;28;20047;-51
2022/02/16 12:05:53;;;;;;;19.30;9.90;;;26.60;69.00;;;;;;4983532;28;20088;-48
2022/02/16 12:08:22;;;;;;;26.38;10.05;;;26.60;68.70;;;;;;4983588;28;20025;-49
2022/02/16 12:10:51;;;;;;;24.35;9.82;;;26.60;69.00;;;;;;4983419;28;20098;-54
2022/02/16 12:13:36;;;;;;;24.00;9.02;;;26.60;69.10;;;;;;4982944;28;20082;-49
2022/02/16 12:16:07;;;;;;;20.98;9.20;;;26.60;69.30;;;;;;4983125;28;20099;-52
2022/02/16 12:18:35;;;;;;;23.58;9.48;;;26.50;69.50;;;;;;4983211;28;20396;-52
2022/02/16 12:21:04;;;;;;;33.45;9.23;;;26.60;69.70;;;;;;4983413;28;20053;-49
2022/02/16 12:23:35;;;;;;;27.63;9.30;;;26.50;69.70;;;;;;4983223;28;20023;-48
2022/02/16 12:26:18;;;;;;;21.88;9.52;;;26.60;70.10;;;;;;4982994;28;20093;-48
2022/02/16 12:29:30;;;;;;;27.25;9.10;;;26.50;70.20;;;;;;4982907;28;20042;-51
2022/02/16 16:20:53;;;;;;;16.58;11.80;;;27.50;69.80;;;;;;4979883;28;20065;-50
2022/02/16 16:23:19;;;;;;;18.67;11.80;;;27.50;69.80;;;;;;4983683;28;20214;-57
2022/02/16 16:25:47;;;;;;;14.07;10.48;;;27.50;69.80;;;;;;4983258;28;20026;-48
2022/02/16 16:28:15;;;;;;;15.35;10.95;;;27.50;69.50;;;;;;4983024;28;20037;-48
2022/02/16 16:30:42;;;;;;;19.77;10.73;;;27.50;70.10;;;;;;4983184;28;20031;-46
2022/02/16 16:33:09;;;;;;;19.58;11.43;;;27.60;69.60;;;;;;4982828;28;20023;-55
2022/02/16 16:35:39;;;;;;;17.30;11.07;;;27.60;69.40;;;;;;4982844;28;20088;-50
2022/02/16 16:38:07;;;;;;;19.23;10.85;;;27.60;69.30;;;;;;4982944;28;20303;-50